createdAt,value
2023-03-28T00:01:01.983Z,9.98
2023-03-28T00:03:30.174Z,10.32
2023-03-28T00:06:00.929Z,15.65
2023-03-28T00:08:29.833Z,12.32
2023-03-28T00:11:05.847Z,8.65
2023-03-28T00:13:35.658Z,8.50
2023-03-28T00:16:05.921Z,10.35
2023-03-28T00:18:39.102Z,14.38
2023-03-28T00:21:10.308Z,12.30
2023-03-28T00:23:37.967Z,13.37
2023-03-28T00:26:08.886Z,7.95
2023-03-28T00:28:38.061Z,4.85
2023-03-28T00:31:06.944Z,11.85
2023-03-28T00:33:35.023Z,8.35
2023-03-28T00:36:03.196Z,10.17
2023-03-28T00:38:31.474Z,16.13
2023-03-28T00:40:59.281Z,9.50
2023-03-28T00:43:40.198Z,10.30
2023-03-28T00:46:14.027Z,12.55
2023-03-28T00:48:48.076Z,8.50
2023-03-28T00:51:16.214Z,9.13
2023-03-28T00:53:44.050Z,15.68
2023-03-28T00:56:14.203Z,11.10
2023-03-28T00:58:44.908Z,15.32
2023-03-28T01:01:15.781Z,9.25
2023-03-28T01:03:47.398Z,8.32
2023-03-28T01:06:16.511Z,9.47
2023-03-28T01:08:47.183Z,9.10
2023-03-28T01:11:15.848Z,13.13
2023-03-28T01:13:48.081Z,10.83
2023-03-28T01:16:16.796Z,10.73
2023-03-28T01:18:47.282Z,11.65
2023-03-28T01:21:48.849Z,11.60
2023-03-28T01:24:38.395Z,12.55
2023-03-28T01:27:08.444Z,12.73
2023-03-28T01:30:02.592Z,11.45
2023-03-28T01:33:02.976Z,16.27
2023-03-28T01:35:52.130Z,9.80
2023-03-28T01:38:27.734Z,12.40
2023-03-28T01:41:02.552Z,14.15
2023-03-28T01:43:38.046Z,9.95
2023-03-28T01:46:09.631Z,14.02
2023-03-28T01:48:43.387Z,13.18
2023-03-28T01:51:14.336Z,13.80
2023-03-28T01:53:45.940Z,13.55
2023-03-28T01:56:18.769Z,10.13
2023-03-28T01:58:52.152Z,13.57
2023-03-28T02:01:24.886Z,10.48
2023-03-28T02:03:56.132Z,19.05
2023-03-28T02:06:24.618Z,10.02
2023-03-28T02:08:55.451Z,13.20
2023-03-28T02:11:24.005Z,9.53
2023-03-28T02:13:54.659Z,16.45
2023-03-28T02:16:24.677Z,9.80
2023-03-28T02:18:55.346Z,12.85
2023-03-28T02:21:26.857Z,6.35
2023-03-28T02:23:56.749Z,12.25
2023-03-28T02:26:25.133Z,8.02
2023-03-28T02:28:55.014Z,10.85
2023-03-28T02:31:23.870Z,18.10
2023-03-28T02:33:53.224Z,22.23
2023-03-28T02:36:30.078Z,12.88
2023-03-28T02:39:13.844Z,17.80
2023-03-28T02:41:49.162Z,14.90
2023-03-28T02:44:38.139Z,10.00
2023-03-28T02:47:13.252Z,10.93
2023-03-28T02:49:50.438Z,7.28
2023-03-28T02:52:25.033Z,13.55
2023-03-28T02:54:58.936Z,12.00
2023-03-28T02:57:32.441Z,11.80
2023-03-28T03:00:12.356Z,19.10
2023-03-28T03:02:40.754Z,11.98
2023-03-28T03:05:09.759Z,18.02
2023-03-28T03:07:38.481Z,13.20
2023-03-28T03:10:09.284Z,15.98
2023-03-28T03:12:37.969Z,13.77
2023-03-28T03:15:07.273Z,12.60
2023-03-28T03:17:35.046Z,13.93
2023-03-28T03:20:06.874Z,15.38
2023-03-28T03:22:34.851Z,20.23
2023-03-28T03:25:06.609Z,13.65
2023-03-28T03:27:36.675Z,12.80
2023-03-28T03:30:05.372Z,15.65
2023-03-28T03:32:33.376Z,6.65
2023-03-28T03:35:01.191Z,9.07
2023-03-28T03:37:28.848Z,9.23
2023-03-28T03:39:56.536Z,10.77
2023-03-28T03:42:24.274Z,11.30
2023-03-28T03:44:54.439Z,15.80
2023-03-28T03:47:22.415Z,13.27
2023-03-28T03:49:50.100Z,10.57
2023-03-28T03:52:17.769Z,8.73
2023-03-28T03:54:45.711Z,11.93
2023-03-28T03:57:13.430Z,11.40
2023-03-28T03:59:41.136Z,11.30
2023-03-28T04:02:10.726Z,16.25
2023-03-28T04:04:40.483Z,13.70
2023-03-28T04:07:08.556Z,14.77
2023-03-28T04:09:36.330Z,18.27
2023-03-28T04:12:04.227Z,9.35
2023-03-28T04:14:31.930Z,10.02
2023-03-28T04:16:59.617Z,13.02
2023-03-28T04:19:28.683Z,10.80
2023-03-28T04:21:57.438Z,11.07
2023-03-28T04:24:25.359Z,8.85
2023-03-28T04:26:55.858Z,13.68
2023-03-28T04:29:30.980Z,15.23
2023-03-28T04:31:58.912Z,13.00
2023-03-28T04:34:30.815Z,9.18
2023-03-28T04:37:01.690Z,9.13
2023-03-28T04:39:30.290Z,15.55
2023-03-28T04:42:01.883Z,13.02
2023-03-28T04:44:30.335Z,10.98
2023-03-28T04:46:58.353Z,13.63
2023-03-28T04:49:26.665Z,12.70
2023-03-28T04:51:55.838Z,11.38
2023-03-28T04:54:23.566Z,14.88
2023-03-28T04:56:51.668Z,14.95
2023-03-28T04:59:19.894Z,16.90
2023-03-28T05:01:50.092Z,15.27
2023-03-28T05:04:18.524Z,14.88
2023-03-28T05:06:46.557Z,21.57
2023-03-28T05:09:16.418Z,16.10
2023-03-28T05:11:46.390Z,17.00
2023-03-28T05:14:14.106Z,13.80
2023-03-28T05:16:42.073Z,19.60
2023-03-28T05:19:12.872Z,17.00
2023-03-28T05:21:41.101Z,13.57
2023-03-28T05:24:10.001Z,11.60
2023-03-28T05:26:39.096Z,17.35
2023-03-28T05:29:07.163Z,21.30
2023-03-28T05:31:34.919Z,12.85
2023-03-28T05:34:02.646Z,21.70
2023-03-28T05:36:30.819Z,17.20
2023-03-28T05:38:58.491Z,17.95
2023-03-28T05:41:26.542Z,16.08
2023-03-28T05:43:56.093Z,25.08
2023-03-28T05:46:23.949Z,13.30
2023-03-28T05:48:51.683Z,30.65
2023-03-28T05:51:19.392Z,16.40
2023-03-28T05:53:47.131Z,17.33
2023-03-28T05:56:15.021Z,13.85
2023-03-28T05:58:42.690Z,34.10
2023-03-28T06:01:12.814Z,17.80
2023-03-28T06:03:42.788Z,17.00
2023-03-28T06:06:10.719Z,16.15
2023-03-28T06:08:38.896Z,20.20
2023-03-28T06:11:12.604Z,16.83
2023-03-28T06:13:40.393Z,16.45
2023-03-28T06:16:08.414Z,17.55
2023-03-28T06:18:37.523Z,14.38
2023-03-28T06:21:05.939Z,18.48
2023-03-28T06:23:33.726Z,14.50
2023-03-28T06:26:01.546Z,14.43
2023-03-28T06:28:29.226Z,20.40
2023-03-28T06:30:56.928Z,17.85
2023-03-28T06:33:24.659Z,21.35
2023-03-28T06:35:53.772Z,22.10
2023-03-28T06:38:21.582Z,17.37
2023-03-28T06:40:49.467Z,14.93
2023-03-28T06:43:17.150Z,18.23
2023-03-28T06:45:44.883Z,17.00
2023-03-28T06:48:12.587Z,15.98
2023-03-28T06:50:40.280Z,22.42
2023-03-28T06:53:09.389Z,14.13
2023-03-28T06:55:37.077Z,16.05
2023-03-28T06:58:05.474Z,10.85
2023-03-28T07:00:33.159Z,16.95
2023-03-28T07:03:00.904Z,18.20
2023-03-28T07:05:29.763Z,16.33
2023-03-28T07:07:57.698Z,9.40
2023-03-28T07:10:26.870Z,12.25
2023-03-28T07:12:54.593Z,12.77
2023-03-28T07:15:22.353Z,5.97
2023-03-28T07:17:50.314Z,9.02
2023-03-28T07:20:18.232Z,13.40
2023-03-28T07:22:46.075Z,15.90
2023-03-28T07:25:22.285Z,9.75
2023-03-28T07:27:51.457Z,10.98
2023-03-28T07:30:19.113Z,10.32
2023-03-28T07:32:56.223Z,19.23
2023-03-28T07:35:31.654Z,12.88
2023-03-28T07:38:00.295Z,15.65
2023-03-28T07:40:28.219Z,12.37
2023-03-28T07:42:57.479Z,8.43
2023-03-28T07:45:25.233Z,17.73
2023-03-28T07:47:52.923Z,13.55
2023-03-28T07:50:22.940Z,14.67
2023-03-28T07:52:57.608Z,18.15
2023-03-28T07:55:26.481Z,17.08
2023-03-28T07:57:54.460Z,9.63
2023-03-28T08:00:24.886Z,13.23
2023-03-28T08:02:53.217Z,9.93
2023-03-28T08:05:21.739Z,10.07
2023-03-28T08:07:53.880Z,14.40
2023-03-28T08:10:21.704Z,14.27
2023-03-28T08:12:49.486Z,17.27
2023-03-28T08:15:17.530Z,9.70
2023-03-28T08:17:46.721Z,17.35
2023-03-28T08:20:14.604Z,16.35
2023-03-28T08:22:42.453Z,17.23
2023-03-28T08:25:10.579Z,16.10
2023-03-28T08:27:38.280Z,12.20
2023-03-28T08:30:07.764Z,18.92
2023-03-28T08:32:35.855Z,19.53
2023-03-28T08:35:06.191Z,19.40
2023-03-28T08:40:27.167Z,11.55
2023-03-28T08:43:04.118Z,10.80
2023-03-28T08:45:42.380Z,10.68
2023-03-28T08:48:17.250Z,9.27
2023-03-28T08:50:48.000Z,14.45
2023-03-28T08:53:20.855Z,9.75
2023-03-28T08:55:50.583Z,14.93
2023-03-28T08:58:21.583Z,6.97
2023-03-28T09:00:50.464Z,7.70
2023-03-28T09:03:20.480Z,5.25
2023-03-28T09:06:16.728Z,3.58
2023-03-28T09:08:54.423Z,11.85
2023-03-28T09:11:30.889Z,7.68
2023-03-28T09:14:09.932Z,9.63
2023-03-28T09:16:48.903Z,5.60
2023-03-28T09:19:36.899Z,14.63
2023-03-28T09:22:19.758Z,9.10
2023-03-28T09:24:58.033Z,3.33
2023-03-28T09:27:29.788Z,3.80
2023-03-28T09:30:00.986Z,6.95
2023-03-28T09:32:31.904Z,11.90
2023-03-28T09:34:59.940Z,5.65
2023-03-28T09:37:32.704Z,10.02
2023-03-28T09:40:08.772Z,12.30
2023-03-28T09:42:43.208Z,6.00
2023-03-28T09:45:26.257Z,4.57
2023-03-28T09:47:54.032Z,5.90
2023-03-28T09:50:21.999Z,5.50
2023-03-28T09:52:52.074Z,8.07
2023-03-28T09:55:22.117Z,13.77
2023-03-28T09:58:02.051Z,5.95
2023-03-28T10:00:29.819Z,5.25
2023-03-28T10:02:57.676Z,6.50
2023-03-28T10:05:32.852Z,6.85
2023-03-28T10:08:04.373Z,7.10
2023-03-28T10:10:32.490Z,5.53
2023-03-28T10:13:04.179Z,6.37
2023-03-28T10:15:35.063Z,5.65
2023-03-28T10:18:24.009Z,6.68
2023-03-28T10:20:52.171Z,3.88
2023-03-28T10:23:22.645Z,7.45
2023-03-28T10:25:53.133Z,5.57
2023-03-28T10:28:28.517Z,6.70
2023-03-28T10:30:58.100Z,6.10
2023-03-28T10:33:27.926Z,13.13
2023-03-28T10:35:58.904Z,4.47
2023-03-28T10:41:03.261Z,6.93
2023-03-28T10:43:36.869Z,4.22
2023-03-28T10:46:08.991Z,2.50
2023-03-28T10:48:37.703Z,6.30
2023-03-28T10:51:09.080Z,5.67
2023-03-28T10:53:58.512Z,6.22
2023-03-28T10:56:31.051Z,3.30
2023-03-28T10:59:11.482Z,7.55
2023-03-28T11:01:49.864Z,6.83
2023-03-28T11:04:27.611Z,8.60
2023-03-28T11:07:01.746Z,5.30
2023-03-28T11:09:35.424Z,3.28
2023-03-28T11:12:14.932Z,9.73
2023-03-28T11:14:58.367Z,5.07
2023-03-28T11:17:31.320Z,6.82
2023-03-28T11:20:18.428Z,6.78
2023-03-28T11:23:05.087Z,4.07
2023-03-28T11:25:59.715Z,10.40
2023-03-28T11:28:35.358Z,8.52
2023-03-28T11:31:03.375Z,10.77
2023-03-28T11:33:35.854Z,7.20
2023-03-28T11:36:07.569Z,6.97
2023-03-28T11:38:39.227Z,9.50
2023-03-28T11:41:12.514Z,5.65
2023-03-28T11:43:45.965Z,9.32
2023-03-28T11:46:17.031Z,4.63
2023-03-28T11:48:47.979Z,10.32
2023-03-28T11:51:18.258Z,7.50
2023-03-28T11:53:51.469Z,7.50
2023-03-28T11:56:28.567Z,13.90
2023-03-28T11:59:23.613Z,14.70
2023-03-28T12:01:56.484Z,12.05
2023-03-28T12:04:28.670Z,10.68
2023-03-28T12:07:07.457Z,12.55
2023-03-28T12:09:37.764Z,9.35
2023-03-28T12:12:10.113Z,8.75
2023-03-28T12:14:46.193Z,10.93
2023-03-28T12:17:18.388Z,6.32
2023-03-28T12:19:48.502Z,14.75
2023-03-28T12:22:21.461Z,12.05
2023-03-28T12:24:57.541Z,11.93
2023-03-28T12:27:35.554Z,11.60
2023-03-28T12:30:10.073Z,9.13
2023-03-28T12:32:43.496Z,10.10
2023-03-28T12:35:15.717Z,6.55
2023-03-28T12:37:54.560Z,8.73
2023-03-28T12:40:27.363Z,9.20
2023-03-28T12:42:57.667Z,7.22
2023-03-28T12:45:31.112Z,9.25
2023-03-28T12:48:03.450Z,11.38
2023-03-28T12:50:33.780Z,3.78
2023-03-28T12:53:01.536Z,6.65
2023-03-28T12:55:47.022Z,5.72
2023-03-28T12:58:22.681Z,8.63
2023-03-28T13:01:00.393Z,11.68
2023-03-28T13:03:36.371Z,6.78
2023-03-28T13:06:12.088Z,7.82
2023-03-28T13:08:51.709Z,6.65
2023-03-28T13:11:26.655Z,7.40
2023-03-28T13:16:47.342Z,6.27
2023-03-28T13:19:18.634Z,5.68
2023-03-28T13:21:49.738Z,6.30
2023-03-28T13:24:31.922Z,4.82
2023-03-28T13:27:01.376Z,6.78
2023-03-28T13:29:45.713Z,9.20
2023-03-28T13:32:16.512Z,5.85
2023-03-28T13:34:51.386Z,4.70
2023-03-28T13:37:23.253Z,6.65
2023-03-28T13:39:52.672Z,10.25
2023-03-28T13:42:29.064Z,8.63
2023-03-28T13:44:59.570Z,5.10
2023-03-28T13:47:33.873Z,6.85
2023-03-28T13:50:05.019Z,5.63
2023-03-28T13:52:33.470Z,7.70
2023-03-28T13:55:02.505Z,8.38
2023-03-28T13:57:31.615Z,7.67
2023-03-28T14:00:01.422Z,10.65
2023-03-28T14:02:38.093Z,7.63
2023-03-28T14:05:14.930Z,5.70
2023-03-28T14:07:42.905Z,3.75
2023-03-28T14:10:29.771Z,5.60
2023-03-28T14:12:59.944Z,6.35
2023-03-28T14:15:30.481Z,8.00
2023-03-28T14:18:00.461Z,6.32
2023-03-28T14:20:29.436Z,6.15
2023-03-28T14:23:01.013Z,7.00
2023-03-28T14:25:30.735Z,5.35
2023-03-28T14:27:59.052Z,5.43
2023-03-28T14:30:28.949Z,7.57
2023-03-28T14:33:00.123Z,7.88
2023-03-28T14:35:30.095Z,7.65
2023-03-28T14:37:59.141Z,7.53
2023-03-28T14:40:32.930Z,7.72
2023-03-28T14:43:04.436Z,10.73
2023-03-28T14:45:36.258Z,6.43
2023-03-28T14:48:07.241Z,6.82
2023-03-28T14:50:37.458Z,7.60
2023-03-28T14:53:07.898Z,9.18
2023-03-28T14:55:36.847Z,9.77
2023-03-28T14:58:06.136Z,10.45
2023-03-28T15:01:04.793Z,7.50
2023-03-28T15:03:35.460Z,4.78
2023-03-28T15:06:03.840Z,6.82
2023-03-28T15:08:34.497Z,11.50
2023-03-28T15:11:15.527Z,7.07
2023-03-28T15:13:44.795Z,6.05
2023-03-28T15:16:18.410Z,12.18
2023-03-28T15:18:54.908Z,8.75
2023-03-28T15:21:23.801Z,6.40
2023-03-28T15:23:55.890Z,6.75
2023-03-28T15:26:27.853Z,7.63
2023-03-28T15:29:16.514Z,7.85
2023-03-28T15:31:45.156Z,4.00
2023-03-28T15:34:20.531Z,10.82
2023-03-28T15:36:54.241Z,6.95
2023-03-28T15:39:25.507Z,6.50
2023-03-28T15:41:55.379Z,7.00
2023-03-28T15:44:27.778Z,4.53
2023-03-28T15:46:57.778Z,7.30
2023-03-28T15:49:27.117Z,4.90
2023-03-28T15:51:57.508Z,5.72
2023-03-28T15:54:31.483Z,4.68
2023-03-28T15:57:02.331Z,5.40
2023-03-28T15:59:33.974Z,7.73
2023-03-28T16:02:22.112Z,4.10
2023-03-28T16:05:02.235Z,5.50
2023-03-28T16:07:35.818Z,5.25
2023-03-28T16:10:04.090Z,6.80
2023-03-28T16:12:31.828Z,3.85
2023-03-28T16:14:59.474Z,6.20
2023-03-28T16:17:31.064Z,6.43
2023-03-28T16:19:59.449Z,5.82
2023-03-28T16:22:28.559Z,7.40
2023-03-28T16:24:56.407Z,7.72
2023-03-28T16:27:24.142Z,4.82
2023-03-28T16:29:51.916Z,7.43
2023-03-28T16:32:23.787Z,8.23
2023-03-28T16:34:52.411Z,8.25
2023-03-28T16:37:20.623Z,7.57
2023-03-28T16:39:50.088Z,5.00
2023-03-28T16:42:20.869Z,6.85
2023-03-28T16:44:48.687Z,5.60
2023-03-28T16:47:16.754Z,6.45
2023-03-28T16:49:44.921Z,5.43
2023-03-28T16:52:12.548Z,6.25
2023-03-28T16:54:40.662Z,5.43
2023-03-28T16:57:09.852Z,5.88
2023-03-28T16:59:37.583Z,3.58
2023-03-28T17:02:05.266Z,9.25
2023-03-28T17:04:33.321Z,5.80
2023-03-28T17:07:01.172Z,6.40
2023-03-28T17:09:29.003Z,2.95
2023-03-28T17:11:56.923Z,14.10
2023-03-28T17:14:26.396Z,7.55
2023-03-28T17:16:54.046Z,6.27
2023-03-28T17:19:24.118Z,3.25
2023-03-28T17:21:51.835Z,3.88
2023-03-28T17:24:21.419Z,6.88
2023-03-28T17:26:49.232Z,5.20
2023-03-28T17:29:17.151Z,4.43
2023-03-28T17:31:46.634Z,5.65
2023-03-28T17:34:14.402Z,4.78
2023-03-28T17:36:42.414Z,4.05
2023-03-28T17:39:11.610Z,6.70
2023-03-28T17:41:39.255Z,4.75
2023-03-28T17:44:08.883Z,5.17
2023-03-28T17:46:37.546Z,7.93
2023-03-28T17:49:08.140Z,5.45
2023-03-28T17:51:35.886Z,6.90
2023-03-28T17:54:06.494Z,5.20
2023-03-28T17:56:34.135Z,4.60
2023-03-28T17:59:02.262Z,6.55
2023-03-28T18:01:30.153Z,6.68
2023-03-28T18:03:58.063Z,6.50
2023-03-28T18:06:27.378Z,6.63
2023-03-28T18:08:55.256Z,3.13
2023-03-28T18:11:23.035Z,4.07
2023-03-28T18:13:52.584Z,7.18
2023-03-28T18:16:20.316Z,7.05
2023-03-28T18:18:48.102Z,5.53
2023-03-28T18:21:16.538Z,6.68
2023-03-28T18:23:45.965Z,7.35
2023-03-28T18:26:13.631Z,6.50
2023-03-28T18:28:42.133Z,5.70
2023-03-28T18:31:12.094Z,4.93
2023-03-28T18:33:42.912Z,6.47
2023-03-28T18:36:12.662Z,7.25
2023-03-28T18:38:42.071Z,4.95
2023-03-28T18:41:12.589Z,6.75
2023-03-28T18:43:42.323Z,5.43
2023-03-28T18:46:15.393Z,6.00
2023-03-28T18:48:44.629Z,6.88
2023-03-28T18:51:13.697Z,7.33
2023-03-28T18:53:41.627Z,5.38
2023-03-28T18:56:13.528Z,6.43
2023-03-28T18:58:41.375Z,5.43
2023-03-28T19:01:10.293Z,7.30
2023-03-28T19:03:40.496Z,8.60
2023-03-28T19:06:09.330Z,8.48
2023-03-28T19:08:37.065Z,6.30
2023-03-28T19:11:08.477Z,7.25
2023-03-28T19:13:37.516Z,8.80
2023-03-28T19:16:06.975Z,10.50
2023-03-28T19:18:37.378Z,4.82
2023-03-28T19:21:05.464Z,6.72
2023-03-28T19:23:33.124Z,5.80
2023-03-28T19:26:01.371Z,7.05
2023-03-28T19:28:29.152Z,7.80
2023-03-28T19:30:59.998Z,6.68
2023-03-28T19:33:28.532Z,7.68
2023-03-28T19:35:56.557Z,3.45
2023-03-28T19:38:25.788Z,5.32
2023-03-28T19:40:58.585Z,5.20
2023-03-28T19:43:26.486Z,4.75
2023-03-28T19:45:54.553Z,6.40
2023-03-28T19:48:24.256Z,5.95
2023-03-28T19:50:51.909Z,4.97
2023-03-28T19:53:21.335Z,6.78
2023-03-28T19:55:52.306Z,5.72
2023-03-28T19:58:19.946Z,4.40
2023-03-28T20:00:48.729Z,8.30
2023-03-28T20:03:16.701Z,9.40
2023-03-28T20:05:47.036Z,6.28
2023-03-28T20:08:16.029Z,9.00
2023-03-28T20:10:45.230Z,4.85
2023-03-28T20:13:13.168Z,5.28
2023-03-28T20:15:42.006Z,10.27
2023-03-28T20:18:10.469Z,14.63
2023-03-28T20:20:39.122Z,8.55
2023-03-28T20:23:08.563Z,4.93
2023-03-28T20:25:37.068Z,7.13
2023-03-28T20:28:05.365Z,7.93
2023-03-28T20:30:33.642Z,7.13
2023-03-28T20:33:01.650Z,7.75
2023-03-28T20:35:29.465Z,4.70
2023-03-28T20:37:57.183Z,8.82
2023-03-28T20:40:26.980Z,8.63
2023-03-28T20:42:54.829Z,9.32
2023-03-28T20:45:25.318Z,7.75
2023-03-28T20:47:58.617Z,8.80
2023-03-28T20:50:34.202Z,8.57
2023-03-28T20:53:02.186Z,7.22
2023-03-28T20:55:31.542Z,4.18
2023-03-28T20:57:59.442Z,4.15
2023-03-28T21:00:32.301Z,6.60
2023-03-28T21:03:00.491Z,7.13
2023-03-28T21:05:28.817Z,5.83
2023-03-28T21:07:56.665Z,8.57
2023-03-28T21:10:24.575Z,5.93
2023-03-28T21:12:53.684Z,7.22
2023-03-28T21:15:21.576Z,8.43
2023-03-28T21:17:53.588Z,6.32
2023-03-28T21:20:21.938Z,7.78
2023-03-28T21:22:49.636Z,5.70
2023-03-28T21:25:17.724Z,7.78
2023-03-28T21:27:45.812Z,7.40
2023-03-28T21:33:03.992Z,4.82
2023-03-28T21:35:31.773Z,8.50
2023-03-28T21:37:59.538Z,5.75
2023-03-28T21:40:27.224Z,4.93
2023-03-28T21:43:51.785Z,4.45
2023-03-28T21:46:20.713Z,5.47
2023-03-28T21:48:50.057Z,8.30
2023-03-28T21:51:18.559Z,6.20
2023-03-28T21:53:47.048Z,8.68
2023-03-28T21:56:16.694Z,8.07
2023-03-28T21:58:44.549Z,7.55
2023-03-28T22:01:13.735Z,6.45
2023-03-28T22:03:41.727Z,7.53
2023-03-28T22:06:11.482Z,9.68
2023-03-28T22:08:39.177Z,6.25
2023-03-28T22:11:13.488Z,6.60
2023-03-28T22:13:41.959Z,6.25
2023-03-28T22:16:12.783Z,11.23
2023-03-28T22:18:41.530Z,8.75
2023-03-28T22:21:17.471Z,7.68
2023-03-28T22:23:47.570Z,7.13
2023-03-28T22:26:16.004Z,7.40
2023-03-28T22:28:43.734Z,6.30
2023-03-28T22:31:11.648Z,8.70
2023-03-28T22:33:39.430Z,9.18
2023-03-28T22:36:07.930Z,7.93
2023-03-28T22:38:37.485Z,7.78
2023-03-28T22:41:06.185Z,6.38
2023-03-28T22:43:34.002Z,9.98
2023-03-28T22:46:01.747Z,9.33
2023-03-28T22:48:31.546Z,7.45
2023-03-28T22:51:01.671Z,8.95
2023-03-28T22:53:29.685Z,8.73
2023-03-28T22:55:59.123Z,10.27
2023-03-28T22:58:27.289Z,10.02
2023-03-28T23:00:55.143Z,11.88
2023-03-28T23:03:23.126Z,11.52
2023-03-28T23:05:51.609Z,12.48
2023-03-28T23:08:19.377Z,10.90
2023-03-28T23:10:47.649Z,8.48
2023-03-28T23:13:17.085Z,15.38
2023-03-28T23:15:44.808Z,13.75
2023-03-28T23:18:12.477Z,10.90
2023-03-28T23:20:40.126Z,11.85
2023-03-28T23:23:08.870Z,10.18
2023-03-28T23:25:37.098Z,12.10
2023-03-28T23:28:05.365Z,11.60
2023-03-28T23:30:34.464Z,15.70
2023-03-28T23:33:02.800Z,7.90
2023-03-28T23:35:30.585Z,10.32
2023-03-28T23:37:58.255Z,12.20
2023-03-28T23:40:25.934Z,14.00
2023-03-28T23:42:53.595Z,10.35
2023-03-28T23:45:21.207Z,9.38
2023-03-28T23:47:50.741Z,11.50
2023-03-28T23:50:18.658Z,9.43
2023-03-28T23:52:46.480Z,11.18
2023-03-28T23:55:14.466Z,11.30
2023-03-28T23:57:42.172Z,9.00
